sensor_id;sensor_type;location;lat;lon;timestamp;pressure;altitude;pressure_sealevel;temperature;humidity
42519;BME280;28147;47.520;18.920;2023-04-07T00:03:04;98166.78;;;5.60;58.51
42519;BME280;28147;47.520;18.920;2023-04-07T01:29:55;98115.75;;;5.73;58.22
42519;BME280;28147;47.520;18.920;2023-04-07T01:32:24;98121.09;;;5.59;58.88
42519;BME280;28147;47.520;18.920;2023-04-07T01:34:51;98120.63;;;5.76;58.99
42519;BME280;28147;47.520;18.920;2023-04-07T01:37:18;98113.06;;;5.86;58.25
42519;BME280;28147;47.520;18.920;2023-04-07T01:39:44;98114.09;;;5.78;58.15
42519;BME280;28147;47.520;18.920;2023-04-07T01:42:11;98113.72;;;5.75;58.42
42519;BME280;28147;47.520;18.920;2023-04-07T01:44:37;98096.78;;;5.96;57.32
42519;BME280;28147;47.520;18.920;2023-04-07T01:47:04;98108.16;;;5.90;57.29
42519;BME280;28147;47.520;18.920;2023-04-07T01:51:54;98110.81;;;5.83;57.32
42519;BME280;28147;47.520;18.920;2023-04-07T01:54:20;98111.22;;;5.93;57.64
42519;BME280;28147;47.520;18.920;2023-04-07T01:56:46;98109.28;;;5.69;58.41
42519;BME280;28147;47.520;18.920;2023-04-07T01:59:11;98115.53;;;5.81;57.77
42519;BME280;28147;47.520;18.920;2023-04-07T02:58:20;98102.34;;;5.68;60.58
42519;BME280;28147;47.520;18.920;2023-04-07T03:00:47;98106.84;;;5.67;60.05
42519;BME280;28147;47.520;18.920;2023-04-07T03:19:01;98105.69;;;5.50;62.43
42519;BME280;28147;47.520;18.920;2023-04-07T03:21:26;98102.69;;;5.33;62.59
42519;BME280;28147;47.520;18.920;2023-04-07T03:23:53;98110.81;;;5.38;62.17
42519;BME280;28147;47.520;18.920;2023-04-07T03:28:13;98113.84;;;5.35;62.79
42519;BME280;28147;47.520;18.920;2023-04-07T03:33:10;98112.47;;;5.12;64.33
42519;BME280;28147;47.520;18.920;2023-04-07T03:35:35;98107.72;;;5.41;63.62
42519;BME280;28147;47.520;18.920;2023-04-07T03:38:01;98108.56;;;5.35;63.21
42519;BME280;28147;47.520;18.920;2023-04-07T03:40:26;98104.34;;;5.21;64.29
42519;BME280;28147;47.520;18.920;2023-04-07T03:42:51;98101.69;;;5.27;63.75
42519;BME280;28147;47.520;18.920;2023-04-07T03:45:17;98092.59;;;5.75;62.08
42519;BME280;28147;47.520;18.920;2023-04-07T03:47:42;98102.28;;;5.36;63.80
42519;BME280;28147;47.520;18.920;2023-04-07T03:50:08;98101.44;;;6.00;61.24
42519;BME280;28147;47.520;18.920;2023-04-07T03:52:33;98104.97;;;5.81;61.02
42519;BME280;28147;47.520;18.920;2023-04-07T03:54:59;98108.91;;;5.52;62.07
42519;BME280;28147;47.520;18.920;2023-04-07T03:57:24;98105.72;;;5.36;62.63
42519;BME280;28147;47.520;18.920;2023-04-07T03:59:50;98107.59;;;5.23;63.02
42519;BME280;28147;47.520;18.920;2023-04-07T04:02:16;98111.22;;;5.28;62.72
42519;BME280;28147;47.520;18.920;2023-04-07T04:04:42;98112.88;;;5.03;62.57
42519;BME280;28147;47.520;18.920;2023-04-07T04:07:07;98112.25;;;5.21;62.66
42519;BME280;28147;47.520;18.920;2023-04-07T04:09:32;98116.56;;;5.73;62.23
42519;BME280;28147;47.520;18.920;2023-04-07T04:11:58;98118.72;;;5.31;62.55
42519;BME280;28147;47.520;18.920;2023-04-07T04:14:23;98124.63;;;5.27;63.23
42519;BME280;28147;47.520;18.920;2023-04-07T04:16:49;98123.38;;;5.29;63.25
42519;BME280;28147;47.520;18.920;2023-04-07T04:19:14;98118.16;;;5.81;60.87
42519;BME280;28147;47.520;18.920;2023-04-07T04:21:40;98129.44;;;5.50;61.02
42519;BME280;28147;47.520;18.920;2023-04-07T04:24:05;98125.56;;;5.52;61.31
42519;BME280;28147;47.520;18.920;2023-04-07T04:26:30;98126.03;;;5.29;62.12
42519;BME280;28147;47.520;18.920;2023-04-07T04:28:56;98133.25;;;5.60;61.46
42519;BME280;28147;47.520;18.920;2023-04-07T04:31:21;98128.91;;;5.86;60.88
42519;BME280;28147;47.520;18.920;2023-04-07T04:33:46;98131.53;;;5.99;60.01
42519;BME280;28147;47.520;18.920;2023-04-07T04:37:03;98132.16;;;6.33;58.60
42519;BME280;28147;47.520;18.920;2023-04-07T04:39:29;98134.97;;;6.38;58.77
42519;BME280;28147;47.520;18.920;2023-04-07T04:41:54;98136.25;;;6.29;58.81
42519;BME280;28147;47.520;18.920;2023-04-07T04:44:20;98138.53;;;6.25;58.59
42519;BME280;28147;47.520;18.920;2023-04-07T04:46:46;98138.34;;;6.14;59.38
42519;BME280;28147;47.520;18.920;2023-04-07T04:49:11;98135.66;;;6.27;58.68
42519;BME280;28147;47.520;18.920;2023-04-07T04:53:24;98142.31;;;5.91;59.78
42519;BME280;28147;47.520;18.920;2023-04-07T04:55:49;98144.88;;;6.11;59.71
42519;BME280;28147;47.520;18.920;2023-04-07T04:58:17;98143.59;;;6.20;59.43
42519;BME280;28147;47.520;18.920;2023-04-07T05:00:43;98149.09;;;6.25;59.02
42519;BME280;28147;47.520;18.920;2023-04-07T05:03:08;98146.63;;;6.30;59.42
42519;BME280;28147;47.520;18.920;2023-04-07T05:05:34;98150.81;;;6.45;59.03
42519;BME280;28147;47.520;18.920;2023-04-07T05:07:59;98153.06;;;6.41;58.73
42519;BME280;28147;47.520;18.920;2023-04-07T05:10:25;98148.63;;;6.35;59.26
42519;BME280;28147;47.520;18.920;2023-04-07T05:12:50;98144.78;;;6.31;59.09
42519;BME280;28147;47.520;18.920;2023-04-07T05:15:16;98143.13;;;6.37;58.79
42519;BME280;28147;47.520;18.920;2023-04-07T05:17:41;98155.22;;;6.19;59.11
42519;BME280;28147;47.520;18.920;2023-04-07T05:20:08;98155.00;;;6.21;59.06
42519;BME280;28147;47.520;18.920;2023-04-07T05:22:35;98167.53;;;6.32;58.34
42519;BME280;28147;47.520;18.920;2023-04-07T05:25:00;98158.03;;;6.24;58.94
42519;BME280;28147;47.520;18.920;2023-04-07T05:27:26;98171.31;;;6.11;58.92
42519;BME280;28147;47.520;18.920;2023-04-07T05:29:51;98176.63;;;6.04;58.59
42519;BME280;28147;47.520;18.920;2023-04-07T05:32:18;98165.31;;;5.84;59.30
42519;BME280;28147;47.520;18.920;2023-04-07T05:34:43;98174.84;;;5.78;60.45
42519;BME280;28147;47.520;18.920;2023-04-07T05:37:09;98174.19;;;6.03;59.24
42519;BME280;28147;47.520;18.920;2023-04-07T05:39:34;98168.69;;;6.04;59.34
42519;BME280;28147;47.520;18.920;2023-04-07T05:42:00;98176.03;;;6.02;60.41
42519;BME280;28147;47.520;18.920;2023-04-07T05:44:26;98167.22;;;6.22;59.68
42519;BME280;28147;47.520;18.920;2023-04-07T05:46:51;98170.81;;;6.27;59.36
42519;BME280;28147;47.520;18.920;2023-04-07T05:49:17;98179.50;;;6.73;58.26
42519;BME280;28147;47.520;18.920;2023-04-07T05:51:42;98181.94;;;6.74;58.20
42519;BME280;28147;47.520;18.920;2023-04-07T05:54:07;98177.63;;;6.80;58.44
42519;BME280;28147;47.520;18.920;2023-04-07T05:56:33;98175.94;;;6.61;58.93
42519;BME280;28147;47.520;18.920;2023-04-07T05:58:58;98169.34;;;6.70;58.74
42519;BME280;28147;47.520;18.920;2023-04-07T06:01:26;98171.88;;;6.58;58.94
42519;BME280;28147;47.520;18.920;2023-04-07T06:03:51;98169.41;;;6.63;58.40
42519;BME280;28147;47.520;18.920;2023-04-07T06:06:16;98177.50;;;6.68;58.59
42519;BME280;28147;47.520;18.920;2023-04-07T06:08:42;98173.34;;;6.47;58.79
42519;BME280;28147;47.520;18.920;2023-04-07T06:11:07;98172.28;;;6.17;59.39
42519;BME280;28147;47.520;18.920;2023-04-07T06:13:33;98169.50;;;6.43;59.30
42519;BME280;28147;47.520;18.920;2023-04-07T06:15:58;98174.81;;;6.75;58.64
42519;BME280;28147;47.520;18.920;2023-04-07T06:18:24;98175.69;;;6.94;58.10
42519;BME280;28147;47.520;18.920;2023-04-07T06:20:49;98166.91;;;6.68;57.88
42519;BME280;28147;47.520;18.920;2023-04-07T06:23:15;98171.97;;;7.01;57.84
42519;BME280;28147;47.520;18.920;2023-04-07T06:25:40;98172.59;;;7.22;57.29
42519;BME280;28147;47.520;18.920;2023-04-07T06:28:05;98170.66;;;7.11;57.66
42519;BME280;28147;47.520;18.920;2023-04-07T06:30:31;98174.44;;;6.96;57.49
42519;BME280;28147;47.520;18.920;2023-04-07T06:32:58;98172.50;;;7.10;57.92
42519;BME280;28147;47.520;18.920;2023-04-07T06:35:23;98172.22;;;7.18;57.50
42519;BME280;28147;47.520;18.920;2023-04-07T06:37:51;98180.81;;;7.14;57.79
42519;BME280;28147;47.520;18.920;2023-04-07T06:40:16;98180.16;;;7.18;57.65
42519;BME280;28147;47.520;18.920;2023-04-07T06:42:41;98185.84;;;6.97;58.46
42519;BME280;28147;47.520;18.920;2023-04-07T06:45:08;98179.06;;;7.51;56.75
42519;BME280;28147;47.520;18.920;2023-04-07T06:47:33;98181.75;;;7.69;56.50
42519;BME280;28147;47.520;18.920;2023-04-07T06:49:59;98186.72;;;7.59;56.54
42519;BME280;28147;47.520;18.920;2023-04-07T06:52:24;98190.84;;;7.55;56.65
42519;BME280;28147;47.520;18.920;2023-04-07T06:54:49;98185.97;;;7.52;56.44
42519;BME280;28147;47.520;18.920;2023-04-07T06:57:15;98186.44;;;7.24;57.08
42519;BME280;28147;47.520;18.920;2023-04-07T06:59:41;98192.09;;;7.52;56.27
42519;BME280;28147;47.520;18.920;2023-04-07T07:02:06;98198.53;;;7.38;56.62
42519;BME280;28147;47.520;18.920;2023-04-07T07:04:33;98201.53;;;7.42;56.93
42519;BME280;28147;47.520;18.920;2023-04-07T07:06:58;98198.41;;;7.51;56.56
42519;BME280;28147;47.520;18.920;2023-04-07T07:09:24;98203.78;;;7.63;55.70
42519;BME280;28147;47.520;18.920;2023-04-07T07:11:50;98207.78;;;7.29;56.73
42519;BME280;28147;47.520;18.920;2023-04-07T07:14:16;98208.88;;;7.21;57.44
42519;BME280;28147;47.520;18.920;2023-04-07T07:16:41;98216.19;;;7.44;57.45
42519;BME280;28147;47.520;18.920;2023-04-07T07:19:07;98218.19;;;7.49;56.40
42519;BME280;28147;47.520;18.920;2023-04-07T07:21:33;98225.75;;;7.45;56.90
42519;BME280;28147;47.520;18.920;2023-04-07T07:23:59;98230.97;;;7.77;56.30
42519;BME280;28147;47.520;18.920;2023-04-07T07:26:24;98239.19;;;7.69;56.20
42519;BME280;28147;47.520;18.920;2023-04-07T07:28:50;98230.53;;;7.62;56.41
42519;BME280;28147;47.520;18.920;2023-04-07T07:31:15;98233.84;;;7.32;57.09
42519;BME280;28147;47.520;18.920;2023-04-07T07:33:41;98236.69;;;7.55;57.63
42519;BME280;28147;47.520;18.920;2023-04-07T07:36:08;98237.34;;;7.26;58.62
42519;BME280;28147;47.520;18.920;2023-04-07T07:38:34;98239.56;;;7.29;58.18
42519;BME280;28147;47.520;18.920;2023-04-07T07:41:00;98237.94;;;7.28;59.05
42519;BME280;28147;47.520;18.920;2023-04-07T07:43:26;98232.47;;;7.48;58.82
42519;BME280;28147;47.520;18.920;2023-04-07T07:45:51;98241.72;;;7.39;57.33
42519;BME280;28147;47.520;18.920;2023-04-07T07:48:16;98240.88;;;7.38;57.77
42519;BME280;28147;47.520;18.920;2023-04-07T07:50:42;98244.69;;;7.49;56.95
42519;BME280;28147;47.520;18.920;2023-04-07T07:53:09;98249.69;;;7.57;57.07
42519;BME280;28147;47.520;18.920;2023-04-07T07:55:34;98255.84;;;7.76;56.04
42519;BME280;28147;47.520;18.920;2023-04-07T07:58:00;98261.38;;;7.74;56.11
42519;BME280;28147;47.520;18.920;2023-04-07T08:00:25;98257.31;;;7.72;56.18
42519;BME280;28147;47.520;18.920;2023-04-07T08:02:51;98266.38;;;7.83;57.35
42519;BME280;28147;47.520;18.920;2023-04-07T08:05:16;98265.84;;;7.74;56.40
42519;BME280;28147;47.520;18.920;2023-04-07T08:07:42;98266.25;;;7.27;59.29
42519;BME280;28147;47.520;18.920;2023-04-07T08:10:08;98277.75;;;7.65;59.75
42519;BME280;28147;47.520;18.920;2023-04-07T08:12:33;98270.72;;;7.95;59.14
42519;BME280;28147;47.520;18.920;2023-04-07T08:14:59;98267.50;;;8.12;59.83
42519;BME280;28147;47.520;18.920;2023-04-07T08:17:24;98271.63;;;8.08;58.89
42519;BME280;28147;47.520;18.920;2023-04-07T08:19:50;98277.56;;;8.03;58.29
42519;BME280;28147;47.520;18.920;2023-04-07T08:22:15;98283.00;;;8.15;58.35
42519;BME280;28147;47.520;18.920;2023-04-07T08:24:43;98279.31;;;8.34;58.46
42519;BME280;28147;47.520;18.920;2023-04-07T08:27:09;98280.97;;;8.10;59.04
42519;BME280;28147;47.520;18.920;2023-04-07T08:29:34;98285.47;;;8.10;60.38
42519;BME280;28147;47.520;18.920;2023-04-07T08:32:00;98277.75;;;7.40;61.31
42519;BME280;28147;47.520;18.920;2023-04-07T08:34:25;98278.22;;;7.30;60.05
42519;BME280;28147;47.520;18.920;2023-04-07T08:36:51;98282.59;;;7.18;61.18
42519;BME280;28147;47.520;18.920;2023-04-07T08:39:16;98284.56;;;7.29;61.26
42519;BME280;28147;47.520;18.920;2023-04-07T08:41:42;98282.34;;;7.26;61.71
42519;BME280;28147;47.520;18.920;2023-04-07T08:44:10;98286.19;;;7.30;61.14
42519;BME280;28147;47.520;18.920;2023-04-07T08:46:38;98281.19;;;7.15;61.47
42519;BME280;28147;47.520;18.920;2023-04-07T08:49:08;98289.47;;;6.55;63.25
42519;BME280;28147;47.520;18.920;2023-04-07T08:51:36;98290.56;;;6.86;63.19
42519;BME280;28147;47.520;18.920;2023-04-07T08:54:09;98289.78;;;7.11;64.14
42519;BME280;28147;47.520;18.920;2023-04-07T08:57:29;98272.28;;;7.60;62.00
42519;BME280;28147;47.520;18.920;2023-04-07T08:59:57;98283.56;;;6.98;62.42
42519;BME280;28147;47.520;18.920;2023-04-07T09:02:25;98294.00;;;7.18;62.71
42519;BME280;28147;47.520;18.920;2023-04-07T09:04:50;98285.50;;;7.10;62.09
42519;BME280;28147;47.520;18.920;2023-04-07T09:07:16;98294.81;;;6.87;63.11
42519;BME280;28147;47.520;18.920;2023-04-07T09:09:41;98289.66;;;6.61;64.82
42519;BME280;28147;47.520;18.920;2023-04-07T09:12:07;98301.25;;;5.95;65.97
42519;BME280;28147;47.520;18.920;2023-04-07T09:14:32;98275.00;;;6.00;66.76
42519;BME280;28147;47.520;18.920;2023-04-07T09:16:58;98281.56;;;6.49;63.90
42519;BME280;28147;47.520;18.920;2023-04-07T09:19:25;98289.44;;;7.00;63.44
42519;BME280;28147;47.520;18.920;2023-04-07T09:21:52;98293.63;;;6.83;64.96
42519;BME280;28147;47.520;18.920;2023-04-07T09:27:16;98295.09;;;6.72;64.69
42519;BME280;28147;47.520;18.920;2023-04-07T09:29:44;98290.81;;;7.10;64.33
42519;BME280;28147;47.520;18.920;2023-04-07T09:32:10;98293.75;;;6.56;65.41
42519;BME280;28147;47.520;18.920;2023-04-07T09:34:40;98294.38;;;6.45;65.67
42519;BME280;28147;47.520;18.920;2023-04-07T09:37:06;98300.22;;;6.61;64.91
42519;BME280;28147;47.520;18.920;2023-04-07T09:39:47;98286.34;;;6.72;64.99
42519;BME280;28147;47.520;18.920;2023-04-07T09:42:13;98305.94;;;6.57;65.53
42519;BME280;28147;47.520;18.920;2023-04-07T09:44:39;98301.97;;;6.80;64.66
42519;BME280;28147;47.520;18.920;2023-04-07T09:47:05;98298.81;;;6.96;64.13
42519;BME280;28147;47.520;18.920;2023-04-07T09:49:31;98298.53;;;7.11;63.47
42519;BME280;28147;47.520;18.920;2023-04-07T09:52:03;98294.84;;;7.12;62.91
42519;BME280;28147;47.520;18.920;2023-04-07T09:54:35;98299.56;;;7.10;63.20
42519;BME280;28147;47.520;18.920;2023-04-07T09:57:03;98299.53;;;7.42;63.67
42519;BME280;28147;47.520;18.920;2023-04-07T09:59:29;98311.59;;;7.06;63.23
42519;BME280;28147;47.520;18.920;2023-04-07T10:01:56;98290.28;;;7.26;61.86
42519;BME280;28147;47.520;18.920;2023-04-07T10:04:22;98303.38;;;7.46;62.52
42519;BME280;28147;47.520;18.920;2023-04-07T10:06:48;98303.75;;;7.74;62.02
42519;BME280;28147;47.520;18.920;2023-04-07T10:09:16;98297.81;;;7.79;62.29
42519;BME280;28147;47.520;18.920;2023-04-07T10:11:44;98294.91;;;7.62;62.24
42519;BME280;28147;47.520;18.920;2023-04-07T10:14:10;98285.78;;;7.76;60.71
42519;BME280;28147;47.520;18.920;2023-04-07T10:16:37;98296.03;;;7.91;60.06
42519;BME280;28147;47.520;18.920;2023-04-07T10:19:03;98303.47;;;7.57;61.36
42519;BME280;28147;47.520;18.920;2023-04-07T10:21:31;98297.13;;;7.65;62.82
42519;BME280;28147;47.520;18.920;2023-04-07T10:27:03;98301.03;;;6.99;64.09
42519;BME280;28147;47.520;18.920;2023-04-07T10:29:39;98301.31;;;7.48;62.51
42519;BME280;28147;47.520;18.920;2023-04-07T10:32:06;98308.25;;;7.74;61.70
42519;BME280;28147;47.520;18.920;2023-04-07T10:34:55;98307.81;;;7.52;62.22
42519;BME280;28147;47.520;18.920;2023-04-07T10:37:23;98306.47;;;8.11;61.44
42519;BME280;28147;47.520;18.920;2023-04-07T10:39:50;98312.84;;;7.85;61.37
42519;BME280;28147;47.520;18.920;2023-04-07T10:45:07;98306.47;;;7.68;61.44
42519;BME280;28147;47.520;18.920;2023-04-07T10:50:22;98300.78;;;7.39;62.32
42519;BME280;28147;47.520;18.920;2023-04-07T10:53:03;98305.28;;;7.39;61.74
42519;BME280;28147;47.520;18.920;2023-04-07T10:55:37;98309.81;;;7.56;60.63
42519;BME280;28147;47.520;18.920;2023-04-07T11:00:42;98320.28;;;7.95;60.18
42519;BME280;28147;47.520;18.920;2023-04-07T11:03:11;98310.38;;;8.09;59.12
42519;BME280;28147;47.520;18.920;2023-04-07T11:05:40;98308.47;;;8.16;58.38
42519;BME280;28147;47.520;18.920;2023-04-07T11:08:06;98306.97;;;8.45;57.13
42519;BME280;28147;47.520;18.920;2023-04-07T11:10:32;98307.38;;;8.23;57.34
42519;BME280;28147;47.520;18.920;2023-04-07T11:13:07;98315.44;;;8.53;57.78
42519;BME280;28147;47.520;18.920;2023-04-07T11:15:34;98310.19;;;8.65;57.79
42519;BME280;28147;47.520;18.920;2023-04-07T11:20:58;98312.47;;;7.82;59.30
42519;BME280;28147;47.520;18.920;2023-04-07T11:23:24;98312.78;;;7.67;59.27
42519;BME280;28147;47.520;18.920;2023-04-07T11:25:53;98320.38;;;8.07;59.04
42519;BME280;28147;47.520;18.920;2023-04-07T11:28:24;98320.13;;;7.90;59.00
42519;BME280;28147;47.520;18.920;2023-04-07T11:30:51;98309.63;;;7.26;60.59
42519;BME280;28147;47.520;18.920;2023-04-07T11:33:21;98309.69;;;7.95;59.83
42519;BME280;28147;47.520;18.920;2023-04-07T11:35:58;98314.03;;;7.64;60.14
42519;BME280;28147;47.520;18.920;2023-04-07T11:38:25;98309.00;;;7.81;59.03
42519;BME280;28147;47.520;18.920;2023-04-07T11:40:52;98312.41;;;7.88;59.46
42519;BME280;28147;47.520;18.920;2023-04-07T11:43:23;98310.47;;;7.95;58.79
42519;BME280;28147;47.520;18.920;2023-04-07T11:48:31;98298.53;;;8.11;58.53
42519;BME280;28147;47.520;18.920;2023-04-07T11:50:58;98316.72;;;8.08;58.05
42519;BME280;28147;47.520;18.920;2023-04-07T11:53:35;98311.56;;;7.88;59.03
42519;BME280;28147;47.520;18.920;2023-04-07T11:56:11;98311.53;;;7.94;59.22
42519;BME280;28147;47.520;18.920;2023-04-07T11:58:51;98310.00;;;8.05;59.72
42519;BME280;28147;47.520;18.920;2023-04-07T12:01:17;98313.13;;;7.77;60.03
42519;BME280;28147;47.520;18.920;2023-04-07T12:04:00;98312.59;;;8.12;59.14
42519;BME280;28147;47.520;18.920;2023-04-07T12:09:07;98317.63;;;8.38;58.42
42519;BME280;28147;47.520;18.920;2023-04-07T12:11:33;98320.59;;;8.05;58.96
42519;BME280;28147;47.520;18.920;2023-04-07T12:14:00;98316.88;;;8.31;58.36
42519;BME280;28147;47.520;18.920;2023-04-07T12:16:25;98320.84;;;8.03;59.40
42519;BME280;28147;47.520;18.920;2023-04-07T12:18:51;98310.84;;;7.55;61.56
42519;BME280;28147;47.520;18.920;2023-04-07T12:21:17;98309.06;;;7.74;60.65
42519;BME280;28147;47.520;18.920;2023-04-07T12:23:44;98308.94;;;7.88;59.96
42519;BME280;28147;47.520;18.920;2023-04-07T12:26:10;98313.31;;;8.00;60.00
42519;BME280;28147;47.520;18.920;2023-04-07T12:28:36;98307.66;;;7.47;60.59
42519;BME280;28147;47.520;18.920;2023-04-07T12:31:02;98301.59;;;7.40;60.70
42519;BME280;28147;47.520;18.920;2023-04-07T12:33:27;98310.72;;;7.69;60.13
42519;BME280;28147;47.520;18.920;2023-04-07T12:35:53;98307.03;;;7.95;59.47
42519;BME280;28147;47.520;18.920;2023-04-07T12:38:19;98303.88;;;8.04;59.20
42519;BME280;28147;47.520;18.920;2023-04-07T12:40:45;98300.94;;;8.31;57.80
42519;BME280;28147;47.520;18.920;2023-04-07T12:43:11;98305.09;;;8.27;57.99
42519;BME280;28147;47.520;18.920;2023-04-07T12:45:36;98307.97;;;8.44;58.23
42519;BME280;28147;47.520;18.920;2023-04-07T12:48:02;98313.78;;;7.91;58.92
42519;BME280;28147;47.520;18.920;2023-04-07T12:50:28;98308.53;;;8.09;58.62
42519;BME280;28147;47.520;18.920;2023-04-07T12:52:54;98313.59;;;8.29;58.31
42519;BME280;28147;47.520;18.920;2023-04-07T12:55:20;98313.44;;;8.49;58.51
42519;BME280;28147;47.520;18.920;2023-04-07T12:57:46;98307.38;;;7.80;59.93
42519;BME280;28147;47.520;18.920;2023-04-07T13:00:13;98314.44;;;7.61;59.80
42519;BME280;28147;47.520;18.920;2023-04-07T13:02:38;98311.84;;;8.04;60.47
42519;BME280;28147;47.520;18.920;2023-04-07T13:05:04;98311.78;;;8.11;59.23
42519;BME280;28147;47.520;18.920;2023-04-07T13:07:30;98317.88;;;8.12;58.64
42519;BME280;28147;47.520;18.920;2023-04-07T13:09:55;98306.63;;;8.35;58.01
42519;BME280;28147;47.520;18.920;2023-04-07T13:12:21;98312.41;;;8.50;58.59
42519;BME280;28147;47.520;18.920;2023-04-07T13:14:47;98314.41;;;7.93;58.86
42519;BME280;28147;47.520;18.920;2023-04-07T13:17:13;98297.00;;;7.28;60.64
42519;BME280;28147;47.520;18.920;2023-04-07T13:20:28;98306.72;;;7.85;60.26
42519;BME280;28147;47.520;18.920;2023-04-07T13:22:54;98311.63;;;8.24;59.26
42519;BME280;28147;47.520;18.920;2023-04-07T13:25:20;98313.59;;;8.29;59.04
42519;BME280;28147;47.520;18.920;2023-04-07T13:27:45;98311.03;;;8.04;59.21
42519;BME280;28147;47.520;18.920;2023-04-07T13:30:12;98318.59;;;8.00;59.63
42519;BME280;28147;47.520;18.920;2023-04-07T13:32:38;98310.94;;;7.92;59.27
42519;BME280;28147;47.520;18.920;2023-04-07T13:35:03;98313.78;;;7.91;59.09
42519;BME280;28147;47.520;18.920;2023-04-07T13:37:29;98316.91;;;8.06;59.11
42519;BME280;28147;47.520;18.920;2023-04-07T13:39:54;98311.13;;;8.34;58.28
42519;BME280;28147;47.520;18.920;2023-04-07T13:42:20;98311.78;;;8.66;57.10
42519;BME280;28147;47.520;18.920;2023-04-07T13:44:46;98322.91;;;8.75;57.20
42519;BME280;28147;47.520;18.920;2023-04-07T13:47:12;98319.81;;;8.60;57.56
42519;BME280;28147;47.520;18.920;2023-04-07T13:49:43;98321.31;;;8.56;57.58
42519;BME280;28147;47.520;18.920;2023-04-07T13:52:09;98320.78;;;8.84;56.88
42519;BME280;28147;47.520;18.920;2023-04-07T13:54:35;98319.72;;;8.85;57.16
42519;BME280;28147;47.520;18.920;2023-04-07T13:57:00;98326.22;;;8.89;56.29
42519;BME280;28147;47.520;18.920;2023-04-07T13:59:26;98324.50;;;8.46;57.08
42519;BME280;28147;47.520;18.920;2023-04-07T14:01:51;98316.53;;;8.02;58.25
42519;BME280;28147;47.520;18.920;2023-04-07T14:04:16;98327.50;;;7.63;59.92
42519;BME280;28147;47.520;18.920;2023-04-07T14:06:42;98329.66;;;7.97;59.65
42519;BME280;28147;47.520;18.920;2023-04-07T14:09:07;98330.25;;;8.18;59.19
42519;BME280;28147;47.520;18.920;2023-04-07T14:11:33;98319.91;;;8.53;57.37
42519;BME280;28147;47.520;18.920;2023-04-07T14:13:59;98324.69;;;8.63;57.88
42519;BME280;28147;47.520;18.920;2023-04-07T14:16:24;98320.72;;;8.53;57.75
42519;BME280;28147;47.520;18.920;2023-04-07T14:18:50;98323.81;;;8.50;58.27
42519;BME280;28147;47.520;18.920;2023-04-07T14:21:16;98326.16;;;8.59;58.20
42519;BME280;28147;47.520;18.920;2023-04-07T14:23:41;98331.91;;;8.56;58.06
42519;BME280;28147;47.520;18.920;2023-04-07T14:26:10;98325.97;;;8.42;58.71
42519;BME280;28147;47.520;18.920;2023-04-07T14:29:32;98324.78;;;8.38;58.17
42519;BME280;28147;47.520;18.920;2023-04-07T14:31:57;98326.25;;;8.52;58.41
42519;BME280;28147;47.520;18.920;2023-04-07T14:34:23;98334.19;;;8.52;58.30
42519;BME280;28147;47.520;18.920;2023-04-07T14:36:53;98321.16;;;8.50;58.28
42519;BME280;28147;47.520;18.920;2023-04-07T14:39:19;98329.19;;;8.62;57.71
42519;BME280;28147;47.520;18.920;2023-04-07T14:41:45;98329.31;;;8.67;58.19
42519;BME280;28147;47.520;18.920;2023-04-07T14:44:12;98334.06;;;8.65;58.39
42519;BME280;28147;47.520;18.920;2023-04-07T14:46:37;98340.13;;;8.11;59.22
42519;BME280;28147;47.520;18.920;2023-04-07T14:49:03;98332.50;;;8.39;58.49
42519;BME280;28147;47.520;18.920;2023-04-07T14:51:28;98341.09;;;8.35;58.51
42519;BME280;28147;47.520;18.920;2023-04-07T14:53:54;98339.00;;;8.62;58.10
42519;BME280;28147;47.520;18.920;2023-04-07T14:56:22;98340.06;;;8.36;58.75
42519;BME280;28147;47.520;18.920;2023-04-07T14:58:49;98340.13;;;8.11;59.71
42519;BME280;28147;47.520;18.920;2023-04-07T15:01:15;98339.53;;;8.09;59.44
42519;BME280;28147;47.520;18.920;2023-04-07T15:03:41;98343.16;;;8.33;58.80
42519;BME280;28147;47.520;18.920;2023-04-07T15:06:08;98346.28;;;8.48;58.21
42519;BME280;28147;47.520;18.920;2023-04-07T15:08:34;98344.50;;;8.23;59.05
42519;BME280;28147;47.520;18.920;2023-04-07T15:11:03;98340.03;;;8.42;58.66
42519;BME280;28147;47.520;18.920;2023-04-07T15:13:28;98344.31;;;8.43;58.39
42519;BME280;28147;47.520;18.920;2023-04-07T15:15:54;98348.00;;;8.61;58.56
42519;BME280;28147;47.520;18.920;2023-04-07T15:18:19;98343.53;;;8.36;59.15
42519;BME280;28147;47.520;18.920;2023-04-07T15:20:45;98342.09;;;8.40;58.79
42519;BME280;28147;47.520;18.920;2023-04-07T15:23:10;98346.69;;;7.83;60.40
42519;BME280;28147;47.520;18.920;2023-04-07T15:25:39;98351.31;;;8.13;60.17
42519;BME280;28147;47.520;18.920;2023-04-07T15:28:04;98326.06;;;8.28;59.16
42519;BME280;28147;47.520;18.920;2023-04-07T15:30:30;98341.44;;;7.51;61.29
42519;BME280;28147;47.520;18.920;2023-04-07T15:33:01;98341.13;;;7.35;62.14
42519;BME280;28147;47.520;18.920;2023-04-07T15:35:28;98344.66;;;7.28;62.13
42519;BME280;28147;47.520;18.920;2023-04-07T15:37:54;98340.72;;;7.38;62.12
42519;BME280;28147;47.520;18.920;2023-04-07T15:40:20;98343.59;;;7.61;62.21
42519;BME280;28147;47.520;18.920;2023-04-07T15:45:19;98349.47;;;7.70;61.80
42519;BME280;28147;47.520;18.920;2023-04-07T15:47:44;98349.91;;;7.35;62.00
42519;BME280;28147;47.520;18.920;2023-04-07T15:50:10;98349.13;;;7.85;61.40
42519;BME280;28147;47.520;18.920;2023-04-07T15:52:35;98352.88;;;7.95;60.85
42519;BME280;28147;47.520;18.920;2023-04-07T15:55:01;98356.38;;;8.14;60.54
42519;BME280;28147;47.520;18.920;2023-04-07T15:57:27;98354.94;;;8.18;60.35
42519;BME280;28147;47.520;18.920;2023-04-07T15:59:52;98352.69;;;7.72;61.10
42519;BME280;28147;47.520;18.920;2023-04-07T16:02:17;98355.88;;;8.05;60.76
42519;BME280;28147;47.520;18.920;2023-04-07T16:04:43;98354.75;;;7.70;61.67
42519;BME280;28147;47.520;18.920;2023-04-07T16:07:11;98360.25;;;7.93;60.80
42519;BME280;28147;47.520;18.920;2023-04-07T16:09:36;98357.13;;;7.78;60.53
42519;BME280;28147;47.520;18.920;2023-04-07T16:12:02;98353.94;;;7.94;60.77